sensor_id;sensor_type;location;lat;lon;timestamp;pressure;altitude;pressure_sealevel;temperature;humidity
49835;BME280;35729;52.090;13.162;2022-09-13T00:01:16;100704.34;;;12.38;83.12
49835;BME280;35729;52.090;13.162;2022-09-13T00:03:45;100700.84;;;12.38;83.10
49835;BME280;35729;52.090;13.162;2022-09-13T00:06:17;100696.47;;;12.37;83.01
49835;BME280;35729;52.090;13.162;2022-09-13T00:08:47;100691.22;;;12.37;83.03
49835;BME280;35729;52.090;13.162;2022-09-13T00:11:20;100685.13;;;12.36;83.14
49835;BME280;35729;52.090;13.162;2022-09-13T00:13:49;100681.63;;;12.36;83.31
49835;BME280;35729;52.090;13.162;2022-09-13T00:16:20;100682.47;;;12.36;83.37
49835;BME280;35729;52.090;13.162;2022-09-13T00:18:49;100674.66;;;12.35;83.42
49835;BME280;35729;52.090;13.162;2022-09-13T00:21:22;100685.16;;;12.35;83.39
49835;BME280;35729;52.090;13.162;2022-09-13T00:23:52;100681.66;;;12.34;83.55
49835;BME280;35729;52.090;13.162;2022-09-13T00:26:23;100677.34;;;12.32;83.61
49835;BME280;35729;52.090;13.162;2022-09-13T00:28:54;100679.06;;;12.33;83.50
49835;BME280;35729;52.090;13.162;2022-09-13T00:31:24;100677.34;;;12.32;83.58
49835;BME280;35729;52.090;13.162;2022-09-13T00:33:53;100665.09;;;12.31;83.47
49835;BME280;35729;52.090;13.162;2022-09-13T00:36:25;100652.91;;;12.28;83.59
49835;BME280;35729;52.090;13.162;2022-09-13T00:38:54;100644.16;;;12.28;83.57
49835;BME280;35729;52.090;13.162;2022-09-13T00:41:22;100640.69;;;12.27;83.71
49835;BME280;35729;52.090;13.162;2022-09-13T00:43:54;100633.75;;;12.25;83.81
49835;BME280;35729;52.090;13.162;2022-09-13T00:46:28;100632.03;;;12.24;83.73
49835;BME280;35729;52.090;13.162;2022-09-13T00:49:02;100617.19;;;12.21;83.85
49835;BME280;35729;52.090;13.162;2022-09-13T00:51:35;100609.31;;;12.19;83.95
49835;BME280;35729;52.090;13.162;2022-09-13T00:54:04;100611.16;;;12.17;84.12
49835;BME280;35729;52.090;13.162;2022-09-13T00:56:34;100608.59;;;12.16;83.97
49835;BME280;35729;52.090;13.162;2022-09-13T00:59:07;100597.25;;;12.14;84.23
49835;BME280;35729;52.090;13.162;2022-09-13T01:01:43;100597.28;;;12.12;84.16
49835;BME280;35729;52.090;13.162;2022-09-13T01:04:14;100587.72;;;12.10;84.23
49835;BME280;35729;52.090;13.162;2022-09-13T01:06:48;100584.22;;;12.09;84.16
49835;BME280;35729;52.090;13.162;2022-09-13T01:09:19;100589.47;;;12.09;84.35
49835;BME280;35729;52.090;13.162;2022-09-13T01:11:48;100589.53;;;12.08;84.45
49835;BME280;35729;52.090;13.162;2022-09-13T01:14:21;100593.94;;;12.07;84.55
49835;BME280;35729;52.090;13.162;2022-09-13T01:16:51;100594.06;;;12.02;84.36
49835;BME280;35729;52.090;13.162;2022-09-13T01:19:20;100600.09;;;12.06;84.62
49835;BME280;35729;52.090;13.162;2022-09-13T01:22:05;100599.22;;;12.05;84.73
49835;BME280;35729;52.090;13.162;2022-09-13T01:25:09;100590.53;;;12.03;84.52
49835;BME280;35729;52.090;13.162;2022-09-13T01:28:02;100582.66;;;12.03;84.57
49835;BME280;35729;52.090;13.162;2022-09-13T01:30:42;100587.03;;;12.03;84.66
49835;BME280;35729;52.090;13.162;2022-09-13T01:33:31;100593.22;;;12.02;84.60
49835;BME280;35729;52.090;13.162;2022-09-13T01:36:30;100587.97;;;12.02;84.82
49835;BME280;35729;52.090;13.162;2022-09-13T01:39:13;100574.00;;;12.00;84.75
49835;BME280;35729;52.090;13.162;2022-09-13T01:41:46;100573.16;;;11.99;84.74
49835;BME280;35729;52.090;13.162;2022-09-13T01:44:27;100574.91;;;11.99;84.43
49835;BME280;35729;52.090;13.162;2022-09-13T01:47:04;100577.56;;;11.97;84.59
49835;BME280;35729;52.090;13.162;2022-09-13T01:49:42;100575.00;;;11.96;84.76
49835;BME280;35729;52.090;13.162;2022-09-13T01:52:19;100574.09;;;11.95;84.87
49835;BME280;35729;52.090;13.162;2022-09-13T01:54:53;100570.66;;;11.93;85.02
49835;BME280;35729;52.090;13.162;2022-09-13T01:57:28;100565.44;;;11.92;84.99
49835;BME280;35729;52.090;13.162;2022-09-13T02:00:03;100571.63;;;11.90;84.94
49835;BME280;35729;52.090;13.162;2022-09-13T02:02:37;100570.78;;;11.88;85.02
49835;BME280;35729;52.090;13.162;2022-09-13T02:05:17;100565.53;;;11.88;85.05
49835;BME280;35729;52.090;13.162;2022-09-13T02:07:52;100563.00;;;11.85;85.04
49835;BME280;35729;52.090;13.162;2022-09-13T02:10:25;100557.84;;;11.82;85.29
49835;BME280;35729;52.090;13.162;2022-09-13T02:12:56;100551.75;;;11.80;85.48
49835;BME280;35729;52.090;13.162;2022-09-13T02:15:30;100550.06;;;11.79;85.17
49835;BME280;35729;52.090;13.162;2022-09-13T02:18:07;100550.06;;;11.78;85.30
49835;BME280;35729;52.090;13.162;2022-09-13T02:20:38;100535.22;;;11.77;85.59
49835;BME280;35729;52.090;13.162;2022-09-13T02:23:12;100518.59;;;11.76;85.64
49835;BME280;35729;52.090;13.162;2022-09-13T02:25:44;100527.34;;;11.77;85.61
49835;BME280;35729;52.090;13.162;2022-09-13T02:28:17;100527.34;;;11.77;85.79
49835;BME280;35729;52.090;13.162;2022-09-13T02:30:50;100519.47;;;11.77;85.75
49835;BME280;35729;52.090;13.162;2022-09-13T02:33:26;100516.84;;;11.77;85.84
49835;BME280;35729;52.090;13.162;2022-09-13T02:36:00;100509.84;;;11.76;85.96
49835;BME280;35729;52.090;13.162;2022-09-13T02:38:33;100508.06;;;11.76;85.97
49835;BME280;35729;52.090;13.162;2022-09-13T02:41:08;100507.22;;;11.76;85.86
49835;BME280;35729;52.090;13.162;2022-09-13T02:43:43;100506.34;;;11.75;86.02
49835;BME280;35729;52.090;13.162;2022-09-13T02:46:20;100495.88;;;11.73;86.20
49835;BME280;35729;52.090;13.162;2022-09-13T02:49:00;100499.41;;;11.74;85.98
49835;BME280;35729;52.090;13.162;2022-09-13T02:51:42;100513.38;;;11.74;86.29
49835;BME280;35729;52.090;13.162;2022-09-13T02:54:22;100512.53;;;11.74;86.16
49835;BME280;35729;52.090;13.162;2022-09-13T02:56:57;100509.94;;;11.72;86.15
49835;BME280;35729;52.090;13.162;2022-09-13T02:59:26;100505.56;;;11.73;86.21
49835;BME280;35729;52.090;13.162;2022-09-13T03:01:59;100501.19;;;11.72;86.35
49835;BME280;35729;52.090;13.162;2022-09-13T03:04:32;100490.63;;;11.73;86.37
49835;BME280;35729;52.090;13.162;2022-09-13T03:07:01;100488.91;;;11.72;86.59
49835;BME280;35729;52.090;13.162;2022-09-13T03:09:30;100475.81;;;11.71;86.72
49835;BME280;35729;52.090;13.162;2022-09-13T03:12:24;100470.50;;;11.72;86.70
49835;BME280;35729;52.090;13.162;2022-09-13T03:15:05;100459.16;;;11.72;86.78
49835;BME280;35729;52.090;13.162;2022-09-13T03:17:44;100466.19;;;11.71;86.84
49835;BME280;35729;52.090;13.162;2022-09-13T03:20:25;100465.31;;;11.71;86.71
49835;BME280;35729;52.090;13.162;2022-09-13T03:23:11;100460.94;;;11.71;86.67
49835;BME280;35729;52.090;13.162;2022-09-13T03:26:05;100459.19;;;11.70;86.97
49835;BME280;35729;52.090;13.162;2022-09-13T03:28:42;100451.34;;;11.69;86.82
49835;BME280;35729;52.090;13.162;2022-09-13T03:31:20;100455.69;;;11.70;87.00
49835;BME280;35729;52.090;13.162;2022-09-13T03:33:55;100453.06;;;11.70;86.90
49835;BME280;35729;52.090;13.162;2022-09-13T03:36:33;100454.78;;;11.71;87.21
49835;BME280;35729;52.090;13.162;2022-09-13T03:39:08;100449.53;;;11.71;86.95
49835;BME280;35729;52.090;13.162;2022-09-13T03:41:42;100449.47;;;11.74;86.94
49835;BME280;35729;52.090;13.162;2022-09-13T03:44:13;100445.06;;;11.74;86.96
49835;BME280;35729;52.090;13.162;2022-09-13T03:46:46;100443.25;;;11.77;87.02
49835;BME280;35729;52.090;13.162;2022-09-13T03:49:17;100450.19;;;11.79;87.16
49835;BME280;35729;52.090;13.162;2022-09-13T03:51:50;100450.97;;;11.81;87.10
49835;BME280;35729;52.090;13.162;2022-09-13T03:54:21;100454.41;;;11.83;87.08
49835;BME280;35729;52.090;13.162;2022-09-13T03:57:08;100452.56;;;11.87;87.35
49835;BME280;35729;52.090;13.162;2022-09-13T03:59:40;100449.81;;;11.90;87.18
49835;BME280;35729;52.090;13.162;2022-09-13T04:02:10;100441.88;;;11.92;87.15
49835;BME280;35729;52.090;13.162;2022-09-13T04:04:39;100447.06;;;11.95;87.15
49835;BME280;35729;52.090;13.162;2022-09-13T04:07:12;100441.78;;;11.96;86.94
49835;BME280;35729;52.090;13.162;2022-09-13T04:09:41;100429.50;;;11.97;87.04
49835;BME280;35729;52.090;13.162;2022-09-13T04:12:10;100432.91;;;11.99;87.13
49835;BME280;35729;52.090;13.162;2022-09-13T04:14:39;100434.66;;;12.00;86.81
49835;BME280;35729;52.090;13.162;2022-09-13T04:17:08;100429.34;;;12.01;86.96
49835;BME280;35729;52.090;13.162;2022-09-13T04:19:37;100428.47;;;12.01;86.86
49835;BME280;35729;52.090;13.162;2022-09-13T04:22:06;100432.84;;;12.02;86.79
49835;BME280;35729;52.090;13.162;2022-09-13T04:24:37;100434.53;;;12.03;86.91
49835;BME280;35729;52.090;13.162;2022-09-13T04:27:06;100432.84;;;12.02;86.99
49835;BME280;35729;52.090;13.162;2022-09-13T04:29:34;100438.88;;;12.04;87.03
49835;BME280;35729;52.090;13.162;2022-09-13T04:32:03;100434.44;;;12.06;86.93
49835;BME280;35729;52.090;13.162;2022-09-13T04:34:31;100422.16;;;12.06;86.79
49835;BME280;35729;52.090;13.162;2022-09-13T04:37:00;100421.19;;;12.09;86.94
49835;BME280;35729;52.090;13.162;2022-09-13T04:39:28;100420.28;;;12.10;86.81
49835;BME280;35729;52.090;13.162;2022-09-13T04:41:59;100421.94;;;12.13;87.03
49835;BME280;35729;52.090;13.162;2022-09-13T04:44:28;100409.69;;;12.13;86.73
49835;BME280;35729;52.090;13.162;2022-09-13T04:46:56;100411.34;;;12.16;86.60
49835;BME280;35729;52.090;13.162;2022-09-13T04:49:25;100420.91;;;12.18;86.73
49835;BME280;35729;52.090;13.162;2022-09-13T04:51:53;100418.16;;;12.21;86.85
49835;BME280;35729;52.090;13.162;2022-09-13T04:54:22;100413.78;;;12.22;86.46
49835;BME280;35729;52.090;13.162;2022-09-13T04:56:50;100412.81;;;12.25;86.66
49835;BME280;35729;52.090;13.162;2022-09-13T04:59:22;100401.31;;;12.27;86.69
49835;BME280;35729;52.090;13.162;2022-09-13T05:01:50;100395.94;;;12.30;86.60
49835;BME280;35729;52.090;13.162;2022-09-13T05:04:19;100389.72;;;12.33;86.56
49835;BME280;35729;52.090;13.162;2022-09-13T05:06:47;100391.31;;;12.37;86.54
49835;BME280;35729;52.090;13.162;2022-09-13T05:09:17;100379.81;;;12.39;86.41
49835;BME280;35729;52.090;13.162;2022-09-13T05:11:45;100383.22;;;12.43;86.26
49835;BME280;35729;52.090;13.162;2022-09-13T05:14:14;100370.97;;;12.42;86.25
49835;BME280;35729;52.090;13.162;2022-09-13T05:16:45;100378.56;;;12.51;86.05
49835;BME280;35729;52.090;13.162;2022-09-13T05:19:14;100384.50;;;12.57;86.06
49835;BME280;35729;52.090;13.162;2022-09-13T05:21:42;100391.38;;;12.61;86.04
49835;BME280;35729;52.090;13.162;2022-09-13T05:24:11;100388.59;;;12.65;85.84
49835;BME280;35729;52.090;13.162;2022-09-13T05:26:39;100385.75;;;12.70;85.80
49835;BME280;35729;52.090;13.162;2022-09-13T05:29:07;100391.75;;;12.75;85.66
49835;BME280;35729;52.090;13.162;2022-09-13T05:31:39;100395.91;;;12.81;85.61
49835;BME280;35729;52.090;13.162;2022-09-13T05:34:12;100390.50;;;12.85;85.53
49835;BME280;35729;52.090;13.162;2022-09-13T05:36:42;100385.09;;;12.88;85.65
49835;BME280;35729;52.090;13.162;2022-09-13T05:39:13;100387.50;;;12.95;85.33
49835;BME280;35729;52.090;13.162;2022-09-13T05:41:42;100377.72;;;12.98;84.96
49835;BME280;35729;52.090;13.162;2022-09-13T05:44:10;100380.19;;;13.03;85.12
49835;BME280;35729;52.090;13.162;2022-09-13T05:46:39;100378.28;;;13.07;84.84
49835;BME280;35729;52.090;13.162;2022-09-13T05:49:11;100369.44;;;13.09;84.88
49835;BME280;35729;52.090;13.162;2022-09-13T05:51:40;100372.84;;;13.11;84.72
49835;BME280;35729;52.090;13.162;2022-09-13T05:54:10;100368.38;;;13.13;84.76
49835;BME280;35729;52.090;13.162;2022-09-13T05:56:39;100369.16;;;13.15;84.98
49835;BME280;35729;52.090;13.162;2022-09-13T05:59:10;100366.53;;;13.15;84.96
49835;BME280;35729;52.090;13.162;2022-09-13T06:01:40;100367.50;;;13.13;85.18
49835;BME280;35729;52.090;13.162;2022-09-13T06:04:10;100374.72;;;13.08;85.75
49835;BME280;35729;52.090;13.162;2022-09-13T06:06:39;100367.94;;;13.02;86.26
49835;BME280;35729;52.090;13.162;2022-09-13T06:09:09;100377.81;;;12.95;86.94
49835;BME280;35729;52.090;13.162;2022-09-13T06:11:38;100385.22;;;12.85;87.84
49835;BME280;35729;52.090;13.162;2022-09-13T06:14:07;100379.50;;;12.74;88.46
49835;BME280;35729;52.090;13.162;2022-09-13T06:16:35;100389.38;;;12.67;89.29
49835;BME280;35729;52.090;13.162;2022-09-13T06:19:04;100389.66;;;12.60;89.67
49835;BME280;35729;52.090;13.162;2022-09-13T06:21:35;100399.53;;;12.53;90.07
49835;BME280;35729;52.090;13.162;2022-09-13T06:24:05;100392.75;;;12.47;90.51
49835;BME280;35729;52.090;13.162;2022-09-13T06:26:33;100395.53;;;12.43;90.93
49835;BME280;35729;52.090;13.162;2022-09-13T06:29:02;100392.94;;;12.41;91.40
49835;BME280;35729;52.090;13.162;2022-09-13T06:31:30;100395.66;;;12.38;91.56
49835;BME280;35729;52.090;13.162;2022-09-13T06:34:00;100393.16;;;12.35;91.85
49835;BME280;35729;52.090;13.162;2022-09-13T06:36:29;100394.97;;;12.33;91.86
49835;BME280;35729;52.090;13.162;2022-09-13T06:39:00;100398.50;;;12.32;92.23
49835;BME280;35729;52.090;13.162;2022-09-13T06:41:31;100395.09;;;12.30;92.36
49835;BME280;35729;52.090;13.162;2022-09-13T06:44:00;100387.22;;;12.28;92.63
49835;BME280;35729;52.090;13.162;2022-09-13T06:46:31;100393.44;;;12.27;92.57
49835;BME280;35729;52.090;13.162;2022-09-13T06:49:08;100386.38;;;12.28;92.97
49835;BME280;35729;52.090;13.162;2022-09-13T06:51:36;100393.38;;;12.29;92.89
49835;BME280;35729;52.090;13.162;2022-09-13T06:54:08;100399.47;;;12.29;93.62
49835;BME280;35729;52.090;13.162;2022-09-13T06:56:37;100400.28;;;12.31;93.09
49835;BME280;35729;52.090;13.162;2022-09-13T06:59:09;100403.69;;;12.35;92.97
49835;BME280;35729;52.090;13.162;2022-09-13T07:01:39;100401.00;;;12.36;93.78
49835;BME280;35729;52.090;13.162;2022-09-13T07:04:09;100392.97;;;12.39;94.08
49835;BME280;35729;52.090;13.162;2022-09-13T07:06:39;100378.84;;;12.42;93.77
49835;BME280;35729;52.090;13.162;2022-09-13T07:09:13;100375.22;;;12.46;93.56
49835;BME280;35729;52.090;13.162;2022-09-13T07:11:43;100382.94;;;12.51;93.79
49835;BME280;35729;52.090;13.162;2022-09-13T07:14:13;100372.31;;;12.54;94.02
49835;BME280;35729;52.090;13.162;2022-09-13T07:16:42;100351.13;;;12.57;93.52
49835;BME280;35729;52.090;13.162;2022-09-13T07:19:13;100342.97;;;12.65;94.17
49835;BME280;35729;52.090;13.162;2022-09-13T07:21:42;100344.47;;;12.72;93.96
49835;BME280;35729;52.090;13.162;2022-09-13T07:24:14;100347.63;;;12.82;93.94
49835;BME280;35729;52.090;13.162;2022-09-13T07:26:42;100351.75;;;12.89;93.92
49835;BME280;35729;52.090;13.162;2022-09-13T07:29:19;100336.56;;;12.96;93.62
49835;BME280;35729;52.090;13.162;2022-09-13T07:31:49;100331.81;;;13.06;93.37
49835;BME280;35729;52.090;13.162;2022-09-13T07:34:19;100342.03;;;13.13;93.31
49835;BME280;35729;52.090;13.162;2022-09-13T07:36:49;100346.09;;;13.22;93.09
49835;BME280;35729;52.090;13.162;2022-09-13T07:39:20;100327.41;;;13.28;92.59
49835;BME280;35729;52.090;13.162;2022-09-13T07:41:49;100323.66;;;13.34;92.57
49835;BME280;35729;52.090;13.162;2022-09-13T07:44:18;100343.63;;;13.41;92.12
49835;BME280;35729;52.090;13.162;2022-09-13T07:46:47;100340.00;;;13.44;92.08
49835;BME280;35729;52.090;13.162;2022-09-13T07:49:17;100341.59;;;13.48;91.79
49835;BME280;35729;52.090;13.162;2022-09-13T07:51:45;100339.69;;;13.51;91.60
49835;BME280;35729;52.090;13.162;2022-09-13T07:54:16;100336.00;;;13.56;91.54
49835;BME280;35729;52.090;13.162;2022-09-13T07:56:47;100335.81;;;13.60;91.52
49835;BME280;35729;52.090;13.162;2022-09-13T07:59:17;100334.66;;;13.67;91.42
49835;BME280;35729;52.090;13.162;2022-09-13T08:01:47;100335.25;;;13.74;91.19
49835;BME280;35729;52.090;13.162;2022-09-13T08:04:18;100322.59;;;13.82;91.35
49835;BME280;35729;52.090;13.162;2022-09-13T08:06:46;100326.63;;;13.91;91.16
49835;BME280;35729;52.090;13.162;2022-09-13T08:09:16;100334.25;;;13.99;90.96
49835;BME280;35729;52.090;13.162;2022-09-13T08:11:48;100326.97;;;14.04;90.80
49835;BME280;35729;52.090;13.162;2022-09-13T08:14:18;100333.66;;;14.13;90.38
49835;BME280;35729;52.090;13.162;2022-09-13T08:16:47;100325.44;;;14.19;90.23
49835;BME280;35729;52.090;13.162;2022-09-13T08:19:17;100326.13;;;14.24;89.86
49835;BME280;35729;52.090;13.162;2022-09-13T08:21:46;100332.81;;;14.31;89.71
49835;BME280;35729;52.090;13.162;2022-09-13T08:24:16;100330.84;;;14.37;89.61
49835;BME280;35729;52.090;13.162;2022-09-13T08:26:48;100340.34;;;14.41;89.29
49835;BME280;35729;52.090;13.162;2022-09-13T08:29:17;100326.16;;;14.43;89.21
49835;BME280;35729;52.090;13.162;2022-09-13T08:31:46;100341.50;;;14.54;89.28
49835;BME280;35729;52.090;13.162;2022-09-13T08:34:15;100355.31;;;14.61;89.33
49835;BME280;35729;52.090;13.162;2022-09-13T08:36:45;100355.84;;;14.69;89.04
49835;BME280;35729;52.090;13.162;2022-09-13T08:39:14;100358.13;;;14.77;88.98
49835;BME280;35729;52.090;13.162;2022-09-13T08:42:02;100359.50;;;14.86;89.19
49835;BME280;35729;52.090;13.162;2022-09-13T08:44:37;100355.66;;;14.93;88.92
49835;BME280;35729;52.090;13.162;2022-09-13T08:47:21;100351.72;;;15.02;89.11
49835;BME280;35729;52.090;13.162;2022-09-13T08:49:58;100362.78;;;15.10;88.76
49835;BME280;35729;52.090;13.162;2022-09-13T08:52:31;100360.66;;;15.18;88.64
49835;BME280;35729;52.090;13.162;2022-09-13T08:55:23;100360.22;;;15.27;88.24
49835;BME280;35729;52.090;13.162;2022-09-13T08:58:00;100357.19;;;15.35;87.59
49835;BME280;35729;52.090;13.162;2022-09-13T09:00:36;100356.91;;;15.41;86.95
49835;BME280;35729;52.090;13.162;2022-09-13T09:03:18;100347.88;;;15.45;86.86
49835;BME280;35729;52.090;13.162;2022-09-13T09:05:49;100348.22;;;15.57;87.19
49835;BME280;35729;52.090;13.162;2022-09-13T09:08:26;100346.06;;;15.65;86.04
49835;BME280;35729;52.090;13.162;2022-09-13T09:10:58;100349.19;;;15.73;85.85
49835;BME280;35729;52.090;13.162;2022-09-13T09:13:34;100343.75;;;15.76;85.49
49835;BME280;35729;52.090;13.162;2022-09-13T09:16:21;100347.91;;;15.82;85.80
49835;BME280;35729;52.090;13.162;2022-09-13T09:18:51;100342.28;;;15.88;85.43
49835;BME280;35729;52.090;13.162;2022-09-13T09:21:22;100339.25;;;15.96;85.31
49835;BME280;35729;52.090;13.162;2022-09-13T09:23:52;100337.88;;;16.06;85.17
49835;BME280;35729;52.090;13.162;2022-09-13T09:26:22;100324.09;;;16.17;84.86
49835;BME280;35729;52.090;13.162;2022-09-13T09:28:58;100335.91;;;16.27;83.77
49835;BME280;35729;52.090;13.162;2022-09-13T09:31:29;100331.91;;;16.36;82.35
49835;BME280;35729;52.090;13.162;2022-09-13T09:34:09;100332.47;;;16.43;83.02
49835;BME280;35729;52.090;13.162;2022-09-13T09:37:15;100332.81;;;16.53;82.60
49835;BME280;35729;52.090;13.162;2022-09-13T09:39:52;100326.97;;;16.64;83.04
49835;BME280;35729;52.090;13.162;2022-09-13T09:42:24;100326.53;;;16.71;82.53
49835;BME280;35729;52.090;13.162;2022-09-13T09:44:58;100321.50;;;16.83;82.58
49835;BME280;35729;52.090;13.162;2022-09-13T09:47:33;100322.75;;;16.93;82.35
49835;BME280;35729;52.090;13.162;2022-09-13T09:50:10;100319.41;;;17.05;81.56
49835;BME280;35729;52.090;13.162;2022-09-13T09:52:43;100314.28;;;17.18;81.22
49835;BME280;35729;52.090;13.162;2022-09-13T09:55:21;100319.00;;;17.29;80.75
49835;BME280;35729;52.090;13.162;2022-09-13T09:57:55;100317.72;;;17.36;79.60
49835;BME280;35729;52.090;13.162;2022-09-13T10:00:28;100307.59;;;17.43;79.41
49835;BME280;35729;52.090;13.162;2022-09-13T10:03:02;100315.09;;;17.51;79.29
49835;BME280;35729;52.090;13.162;2022-09-13T10:05:33;100317.41;;;17.57;79.38
49835;BME280;35729;52.090;13.162;2022-09-13T10:08:04;100323.19;;;17.64;78.72
49835;BME280;35729;52.090;13.162;2022-09-13T10:10:39;100315.84;;;17.69;78.67
49835;BME280;35729;52.090;13.162;2022-09-13T10:13:14;100310.16;;;17.75;78.59
49835;BME280;35729;52.090;13.162;2022-09-13T10:15:58;100313.31;;;17.82;77.50
49835;BME280;35729;52.090;13.162;2022-09-13T10:18:28;100315.59;;;17.88;78.66
49835;BME280;35729;52.090;13.162;2022-09-13T10:21:03;100310.84;;;17.95;78.05
49835;BME280;35729;52.090;13.162;2022-09-13T10:23:32;100307.88;;;17.99;78.12
49835;BME280;35729;52.090;13.162;2022-09-13T10:26:04;100301.16;;;18.08;77.99
49835;BME280;35729;52.090;13.162;2022-09-13T10:28:38;100292.66;;;18.17;77.59
49835;BME280;35729;52.090;13.162;2022-09-13T10:31:12;100304.44;;;18.28;77.55
49835;BME280;35729;52.090;13.162;2022-09-13T10:33:45;100302.06;;;18.37;77.07
49835;BME280;35729;52.090;13.162;2022-09-13T10:36:22;100298.63;;;18.50;77.23
49835;BME280;35729;52.090;13.162;2022-09-13T10:38:58;100292.56;;;18.62;75.54
49835;BME280;35729;52.090;13.162;2022-09-13T10:41:30;100285.06;;;18.69;76.07
49835;BME280;35729;52.090;13.162;2022-09-13T10:44:01;100291.22;;;18.84;75.81
49835;BME280;35729;52.090;13.162;2022-09-13T10:46:34;100278.31;;;18.92;75.43
49835;BME280;35729;52.090;13.162;2022-09-13T10:49:05;100294.03;;;19.10;75.24
49835;BME280;35729;52.090;13.162;2022-09-13T10:51:35;100282.59;;;19.22;74.11
49835;BME280;35729;52.090;13.162;2022-09-13T10:54:09;100283.72;;;19.32;72.83
49835;BME280;35729;52.090;13.162;2022-09-13T10:56:43;100284.81;;;19.43;73.34
49835;BME280;35729;52.090;13.162;2022-09-13T10:59:22;100278.13;;;19.50;72.88
49835;BME280;35729;52.090;13.162;2022-09-13T11:02:13;100288.25;;;19.58;71.02
49835;BME280;35729;52.090;13.162;2022-09-13T11:05:03;100292.19;;;19.65;71.36
49835;BME280;35729;52.090;13.162;2022-09-13T11:10:32;100286.28;;;19.74;71.72
49835;BME280;35729;52.090;13.162;2022-09-13T11:13:06;100290.31;;;19.80;70.78
49835;BME280;35729;52.090;13.162;2022-09-13T11:15:50;100284.25;;;19.78;70.63
49835;BME280;35729;52.090;13.162;2022-09-13T11:18:43;100278.06;;;19.77;70.20
49835;BME280;35729;52.090;13.162;2022-09-13T11:21:26;100282.84;;;19.72;69.94
49835;BME280;35729;52.090;13.162;2022-09-13T11:24:25;100284.84;;;19.68;69.84
49835;BME280;35729;52.090;13.162;2022-09-13T11:27:03;100289.34;;;19.68;71.03
49835;BME280;35729;52.090;13.162;2022-09-13T11:29:51;100291.34;;;19.64;71.19
49835;BME280;35729;52.090;13.162;2022-09-13T11:32:37;100286.31;;;19.60;71.25
49835;BME280;35729;52.090;13.162;2022-09-13T11:35:35;100288.97;;;19.47;71.31
49835;BME280;35729;52.090;13.162;2022-09-13T11:38:33;100293.19;;;19.36;72.00
49835;BME280;35729;52.090;13.162;2022-09-13T11:41:11;100277.91;;;19.26;72.47
49835;BME280;35729;52.090;13.162;2022-09-13T11:43:54;100274.81;;;19.19;73.37
49835;BME280;35729;52.090;13.162;2022-09-13T11:46:29;100275.88;;;19.16;73.68
49835;BME280;35729;52.090;13.162;2022-09-13T11:49:12;100278.66;;;19.15;73.87
49835;BME280;35729;52.090;13.162;2022-09-13T11:51:53;100287.00;;;19.09;73.58
49835;BME280;35729;52.090;13.162;2022-09-13T11:54:35;100277.53;;;19.04;74.13
49835;BME280;35729;52.090;13.162;2022-09-13T11:57:10;100274.97;;;19.03;74.76
49835;BME280;35729;52.090;13.162;2022-09-13T11:59:44;100266.91;;;19.04;74.96
49835;BME280;35729;52.090;13.162;2022-09-13T12:02:19;100275.81;;;19.03;75.08
49835;BME280;35729;52.090;13.162;2022-09-13T12:04:54;100280.09;;;19.06;75.20
49835;BME280;35729;52.090;13.162;2022-09-13T12:07:31;100284.34;;;19.09;75.97
49835;BME280;35729;52.090;13.162;2022-09-13T12:10:05;100262.16;;;19.10;76.29
49835;BME280;35729;52.090;13.162;2022-09-13T12:12:35;100265.34;;;19.15;76.61
49835;BME280;35729;52.090;13.162;2022-09-13T12:15:09;100262.59;;;19.16;76.34
49835;BME280;35729;52.090;13.162;2022-09-13T12:17:44;100260.75;;;19.17;76.86
49835;BME280;35729;52.090;13.162;2022-09-13T12:20:19;100265.13;;;19.18;76.70
49835;BME280;35729;52.090;13.162;2022-09-13T12:22:54;100255.44;;;19.17;76.59
49835;BME280;35729;52.090;13.162;2022-09-13T12:25:34;100251.44;;;19.24;76.27
49835;BME280;35729;52.090;13.162;2022-09-13T12:28:12;100253.81;;;19.29;76.21
49835;BME280;35729;52.090;13.162;2022-09-13T12:30:46;100258.72;;;19.35;76.04
49835;BME280;35729;52.090;13.162;2022-09-13T12:33:17;100261.06;;;19.40;74.61
49835;BME280;35729;52.090;13.162;2022-09-13T12:35:57;100267.97;;;19.42;73.50
49835;BME280;35729;52.090;13.162;2022-09-13T12:38:46;100251.72;;;19.47;74.35
49835;BME280;35729;52.090;13.162;2022-09-13T12:41:30;100253.75;;;19.56;73.96
49835;BME280;35729;52.090;13.162;2022-09-13T12:47:21;100249.75;;;19.76;72.54
49835;BME280;35729;52.090;13.162;2022-09-13T12:50:17;100245.50;;;19.86;72.06
49835;BME280;35729;52.090;13.162;2022-09-13T12:52:54;100245.00;;;19.94;72.05
49835;BME280;35729;52.090;13.162;2022-09-13T12:55:51;100237.97;;;20.06;69.96
49835;BME280;35729;52.090;13.162;2022-09-13T13:01:14;100245.63;;;20.24;70.13
49835;BME280;35729;52.090;13.162;2022-09-13T13:03:50;100231.78;;;20.31;68.85
49835;BME280;35729;52.090;13.162;2022-09-13T13:06:28;100236.34;;;20.42;70.38
49835;BME280;35729;52.090;13.162;2022-09-13T13:09:01;100218.84;;;20.51;69.85
49835;BME280;35729;52.090;13.162;2022-09-13T13:11:42;100221.81;;;20.59;69.08
49835;BME280;35729;52.090;13.162;2022-09-13T13:17:43;100224.56;;;20.71;68.72
49835;BME280;35729;52.090;13.162;2022-09-13T13:20:44;100223.38;;;20.75;67.63
49835;BME280;35729;52.090;13.162;2022-09-13T13:23:20;100221.34;;;20.78;68.19
49835;BME280;35729;52.090;13.162;2022-09-13T13:26:10;100215.19;;;20.78;66.80
49835;BME280;35729;52.090;13.162;2022-09-13T13:31:45;100214.75;;;20.71;68.38